SWA1367 MBPV-KBWI
Flight info
| Callsign | SWA1367 |
|---|---|
| Flight time | N/A |
| Altitude | 34000 |
| Route | BTLER L463 NUCAR DCT OHLAA/N0464F350 DCT SEELO DCT GARIC DCT ZORDO Q111 RUKRR DCT THHMP RAVNN7 |
| Aircraft | B738/M-SDE2E3FGHIRWXY/LB1 |
Departure
| Time | 2026-04-22 18:08 |
|---|---|
| Airport | Providenciales International Airport (MBPV) |
Arrival
| Time | N/A |
|---|---|
| Airport | Baltimore/Washington International Thurgood Marshall Airport (KBWI) |
| Time | Latitude | Longitude | Altitude | Speed | Heading |
|---|---|---|---|---|---|
| 2026-04-22 17:53 | 21.77573 | -72.27298 | 41 ft | 0 kts | 36° |
| 2026-04-22 18:01 | 21.77564 | -72.27305 | 39 ft | 3 kts | 35° |
| 2026-04-22 18:01 | 21.77548 | -72.27317 | 40 ft | 2 kts | 33° |
| 2026-04-22 18:01 | 21.77538 | -72.27324 | 41 ft | 3 kts | 27° |
| 2026-04-22 18:02 | 21.77523 | -72.27329 | 36 ft | 3 kts | 337° |
| 2026-04-22 18:02 | 21.77517 | -72.27322 | 39 ft | 3 kts | 269° |
| 2026-04-22 18:02 | 21.77518 | -72.27301 | 38 ft | 3 kts | 265° |
| 2026-04-22 18:02 | 21.77519 | -72.27283 | 40 ft | 1 kts | 273° |
| 2026-04-22 18:03 | 21.77518 | -72.27268 | 39 ft | 3 kts | 273° |
| 2026-04-22 18:03 | 21.77517 | -72.27256 | 41 ft | 1 kts | 273° |
| 2026-04-22 18:05 | 21.77520 | -72.27312 | 36 ft | 10 kts | 273° |
| 2026-04-22 18:05 | 21.77524 | -72.27387 | 40 ft | 10 kts | 273° |
| 2026-04-22 18:05 | 21.77506 | -72.27454 | 38 ft | 10 kts | 212° |
| 2026-04-22 18:06 | 21.77423 | -72.27475 | 37 ft | 16 kts | 213° |
| 2026-04-22 18:06 | 21.77409 | -72.27612 | 37 ft | 21 kts | 272° |
| 2026-04-22 18:06 | 21.77416 | -72.27764 | 37 ft | 20 kts | 274° |
| 2026-04-22 18:06 | 21.77426 | -72.27931 | 37 ft | 29 kts | 272° |
| 2026-04-22 18:07 | 21.77440 | -72.28133 | 34 ft | 20 kts | 291° |
| 2026-04-22 18:07 | 21.77454 | -72.28215 | 35 ft | 12 kts | 203° |
| 2026-04-22 18:07 | 21.77429 | -72.28177 | 36 ft | 7 kts | 75° |
| 2026-04-22 18:07 | 21.77433 | -72.28117 | 36 ft | 16 kts | 94° |
| 2026-04-22 18:08 | 21.77414 | -72.27705 | 37 ft | 97 kts | 93° |
| 2026-04-22 18:08 | 21.77369 | -72.26707 | 43 ft | 168 kts | 91° |
| 2026-04-22 18:08 | 21.77265 | -72.25348 | 681 ft | 188 kts | 91° |
| 2026-04-22 18:08 | 21.77129 | -72.23935 | 1687 ft | 185 kts | 91° |
| 2026-04-22 18:09 | 21.76995 | -72.22538 | 2354 ft | 196 kts | 80° |
| 2026-04-22 18:09 | 21.77667 | -72.21253 | 2727 ft | 210 kts | 39° |
| 2026-04-22 18:09 | 21.79072 | -72.20695 | 3305 ft | 226 kts | 9° |
| 2026-04-22 18:09 | 21.80727 | -72.20961 | 3597 ft | 261 kts | 340° |
| 2026-04-22 18:10 | 21.82258 | -72.22080 | 4253 ft | 278 kts | 321° |
| 2026-04-22 18:10 | 21.83640 | -72.23535 | 5193 ft | 278 kts | 316° |
| 2026-04-22 18:10 | 21.84982 | -72.25048 | 6040 ft | 283 kts | 316° |
| 2026-04-22 18:10 | 21.86355 | -72.26597 | 6830 ft | 285 kts | 315° |
| 2026-04-22 18:11 | 21.87721 | -72.28122 | 7779 ft | 283 kts | 315° |
| 2026-04-22 18:11 | 21.89101 | -72.29641 | 8629 ft | 283 kts | 314° |
| 2026-04-22 18:11 | 21.90483 | -72.31145 | 9536 ft | 283 kts | 314° |
| 2026-04-22 18:11 | 21.91871 | -72.32645 | 10407 ft | 282 kts | 313° |
| 2026-04-22 18:12 | 21.93301 | -72.34184 | 10805 ft | 300 kts | 313° |
| 2026-04-22 18:12 | 21.94841 | -72.35839 | 10964 ft | 324 kts | 313° |
| 2026-04-22 18:12 | 21.95925 | -72.37003 | 11079 ft | 339 kts | 313° |
| 2026-04-22 18:12 | 21.98256 | -72.39495 | 11309 ft | 366 kts | 313° |
| 2026-04-22 18:13 | 22.00101 | -72.41465 | 11443 ft | 383 kts | 314° |
| 2026-04-22 18:13 | 22.01731 | -72.43202 | 11850 ft | 388 kts | 314° |
| 2026-04-22 18:13 | 22.03659 | -72.45253 | 12388 ft | 392 kts | 314° |
| 2026-04-22 18:13 | 22.05608 | -72.47332 | 12950 ft | 395 kts | 313° |
| 2026-04-22 18:14 | 22.07554 | -72.49408 | 13601 ft | 395 kts | 312° |
| 2026-04-22 18:14 | 22.09510 | -72.51498 | 14160 ft | 397 kts | 312° |
| 2026-04-22 18:14 | 22.11477 | -72.53604 | 14588 ft | 402 kts | 313° |
| 2026-04-22 18:14 | 22.13467 | -72.55731 | 15059 ft | 404 kts | 313° |
| 2026-04-22 18:15 | 22.15484 | -72.57887 | 15348 ft | 412 kts | 313° |
| 2026-04-22 18:15 | 22.17512 | -72.60056 | 15999 ft | 409 kts | 314° |
| 2026-04-22 18:15 | 22.19539 | -72.62226 | 16397 ft | 412 kts | 313° |
| 2026-04-22 18:15 | 22.21566 | -72.64396 | 16980 ft | 411 kts | 313° |
| 2026-04-22 18:16 | 22.23613 | -72.66587 | 17330 ft | 416 kts | 313° |
| 2026-04-22 18:16 | 22.25808 | -72.68648 | 17725 ft | 421 kts | 320° |
| 2026-04-22 18:16 | 22.28139 | -72.70583 | 18104 ft | 425 kts | 321° |
| 2026-04-22 18:16 | 22.30506 | -72.72507 | 18502 ft | 427 kts | 320° |
| 2026-04-22 18:17 | 22.32882 | -72.74443 | 18844 ft | 429 kts | 321° |
| 2026-04-22 18:17 | 22.35264 | -72.76406 | 19175 ft | 432 kts | 320° |
| 2026-04-22 18:17 | 22.37639 | -72.78381 | 19614 ft | 430 kts | 320° |
| 2026-04-22 18:17 | 22.39975 | -72.80334 | 19987 ft | 431 kts | 320° |
| 2026-04-22 18:18 | 22.42358 | -72.82331 | 20293 ft | 434 kts | 320° |
| 2026-04-22 18:18 | 22.44751 | -72.84337 | 20607 ft | 436 kts | 320° |
| 2026-04-22 18:18 | 22.47153 | -72.86351 | 20960 ft | 437 kts | 320° |
| 2026-04-22 18:18 | 22.49554 | -72.88365 | 21320 ft | 437 kts | 320° |
| 2026-04-22 18:19 | 22.51955 | -72.90380 | 21682 ft | 438 kts | 320° |
| 2026-04-22 18:19 | 22.54355 | -72.92423 | 22009 ft | 439 kts | 319° |
| 2026-04-22 18:19 | 22.56751 | -72.94483 | 22324 ft | 440 kts | 319° |
| 2026-04-22 18:19 | 22.59146 | -72.96551 | 22630 ft | 441 kts | 319° |
| 2026-04-22 18:20 | 22.61544 | -72.98625 | 22947 ft | 442 kts | 319° |
| 2026-04-22 18:20 | 22.63854 | -73.00620 | 23237 ft | 442 kts | 319° |
| 2026-04-22 18:20 | 22.66233 | -73.02675 | 23516 ft | 443 kts | 319° |
| 2026-04-22 18:20 | 22.68648 | -73.04760 | 23767 ft | 445 kts | 319° |
| 2026-04-22 18:21 | 22.71069 | -73.06850 | 23991 ft | 446 kts | 319° |
| 2026-04-22 18:21 | 22.73500 | -73.08949 | 24211 ft | 447 kts | 319° |
| 2026-04-22 18:21 | 22.75932 | -73.11049 | 24422 ft | 447 kts | 319° |
| 2026-04-22 18:21 | 22.78366 | -73.13152 | 24644 ft | 448 kts | 319° |
| 2026-04-22 18:22 | 22.80805 | -73.15260 | 24849 ft | 449 kts | 319° |
| 2026-04-22 18:22 | 22.83251 | -73.17375 | 25057 ft | 450 kts | 318° |
| 2026-04-22 18:22 | 22.85702 | -73.19495 | 25259 ft | 451 kts | 318° |
| 2026-04-22 18:22 | 22.88160 | -73.21624 | 25430 ft | 453 kts | 318° |
| 2026-04-22 18:23 | 22.90625 | -73.23758 | 25631 ft | 454 kts | 318° |
| 2026-04-22 18:23 | 22.93090 | -73.25894 | 25863 ft | 454 kts | 318° |
| 2026-04-22 18:23 | 22.95548 | -73.28024 | 26139 ft | 452 kts | 318° |
| 2026-04-22 18:24 | 23.00439 | -73.32265 | 26811 ft | 448 kts | 317° |
| 2026-04-22 18:24 | 23.02866 | -73.34371 | 27143 ft | 446 kts | 317° |
| 2026-04-22 18:24 | 23.07698 | -73.38569 | 27774 ft | 444 kts | 317° |
| 2026-04-22 18:25 | 23.10107 | -73.40663 | 28127 ft | 442 kts | 317° |
| 2026-04-22 18:25 | 23.12505 | -73.42748 | 28483 ft | 440 kts | 317° |
| 2026-04-22 18:25 | 23.14858 | -73.44795 | 28836 ft | 439 kts | 317° |
| 2026-04-22 18:26 | 23.19497 | -73.48835 | 29553 ft | 436 kts | 316° |
| 2026-04-22 18:26 | 23.21858 | -73.50893 | 29943 ft | 434 kts | 316° |
| 2026-04-22 18:26 | 23.24210 | -73.52943 | 30324 ft | 432 kts | 316° |
| 2026-04-22 18:26 | 23.26551 | -73.54984 | 30669 ft | 430 kts | 316° |
| 2026-04-22 18:27 | 23.28790 | -73.56937 | 30980 ft | 429 kts | 316° |
| 2026-04-22 18:27 | 23.31107 | -73.58960 | 31295 ft | 427 kts | 316° |
| 2026-04-22 18:27 | 23.33430 | -73.60989 | 31629 ft | 426 kts | 316° |
| 2026-04-22 18:27 | 23.35732 | -73.63000 | 31981 ft | 423 kts | 316° |
| 2026-04-22 18:28 | 23.38025 | -73.65004 | 32325 ft | 422 kts | 316° |
| 2026-04-22 18:28 | 23.39107 | -73.65950 | 32493 ft | 421 kts | 316° |
| 2026-04-22 18:28 | 23.41384 | -73.67942 | 32832 ft | 419 kts | 316° |
| 2026-04-22 18:28 | 23.43619 | -73.69898 | 33173 ft | 417 kts | 315° |
| 2026-04-22 18:29 | 23.45873 | -73.71872 | 33485 ft | 415 kts | 315° |
| 2026-04-22 18:29 | 23.48121 | -73.73842 | 33792 ft | 414 kts | 315° |
| 2026-04-22 18:29 | 23.50362 | -73.75806 | 34115 ft | 413 kts | 315° |
| 2026-04-22 18:29 | 23.52611 | -73.77779 | 34147 ft | 417 kts | 315° |
| 2026-04-22 18:30 | 23.59365 | -73.83707 | 34153 ft | 413 kts | 315° |
| 2026-04-22 18:31 | 23.63830 | -73.87629 | 34152 ft | 411 kts | 315° |
| 2026-04-22 18:31 | 23.68268 | -73.91532 | 34150 ft | 409 kts | 315° |
| 2026-04-22 18:32 | 23.72691 | -73.95428 | 34158 ft | 408 kts | 315° |
| 2026-04-22 18:32 | 23.77114 | -73.99324 | 34157 ft | 409 kts | 315° |
| 2026-04-22 18:33 | 23.81453 | -74.03148 | 34160 ft | 410 kts | 315° |
| 2026-04-22 18:33 | 23.85895 | -74.07064 | 34160 ft | 411 kts | 315° |
| 2026-04-22 18:34 | 23.90349 | -74.10996 | 34161 ft | 412 kts | 315° |
| 2026-04-22 18:34 | 23.94813 | -74.14941 | 34162 ft | 413 kts | 315° |
| 2026-04-22 18:35 | 23.99291 | -74.18901 | 34162 ft | 414 kts | 315° |
| 2026-04-22 18:35 | 24.03770 | -74.22867 | 34169 ft | 415 kts | 315° |
| 2026-04-22 18:36 | 24.08227 | -74.26816 | 34170 ft | 415 kts | 315° |
| 2026-04-22 18:36 | 24.12708 | -74.30790 | 34178 ft | 415 kts | 315° |
| 2026-04-22 18:37 | 24.17184 | -74.34764 | 34176 ft | 414 kts | 315° |
| 2026-04-22 18:37 | 24.21660 | -74.38742 | 34179 ft | 414 kts | 316° |
| 2026-04-22 18:38 | 24.26131 | -74.42719 | 34170 ft | 414 kts | 316° |
| 2026-04-22 18:38 | 24.30598 | -74.46696 | 34171 ft | 413 kts | 316° |
| 2026-04-22 18:39 | 24.37294 | -74.52665 | 34168 ft | 413 kts | 315° |
| 2026-04-22 18:39 | 24.41754 | -74.56634 | 34163 ft | 413 kts | 317° |
| 2026-04-22 18:40 | 24.46447 | -74.60337 | 34166 ft | 416 kts | 320° |
| 2026-04-22 18:40 | 24.51206 | -74.63943 | 34166 ft | 416 kts | 319° |